Time;durP1;ratioP1;P1;durP2;ratioP2;P2;SDS_P1;SDS_P2;PMS_P1;PMS_P2;Temp;Humidity;BMP_temperature;BMP_pressure;BME280_temperature;BME280_humidity;BME280_pressure;Samples;Min_cycle;Max_cycle;Signal;HPM_P1;HPM_P2
2024/04/04 00:02:02;;;;;;;0.80;0.50;;;22.10;49.10;;;;;;5008922;28;20034;-64
2024/04/04 00:04:30;;;;;;;1.38;0.60;;;22.10;49.10;;;;;;4986696;28;20025;-64
2024/04/04 00:06:56;;;;;;;0.60;0.50;;;22.10;49.10;;;;;;5008895;28;20057;-65
2024/04/04 00:09:22;;;;;;;0.43;0.40;;;22.10;49.10;;;;;;5009220;28;20307;-65
2024/04/04 00:11:47;;;;;;;0.90;0.60;;;22.10;49.10;;;;;;5008894;28;20026;-64
2024/04/04 00:14:13;;;;;;;0.55;0.50;;;22.10;49.10;;;;;;5007457;28;20038;-64
2024/04/04 00:16:38;;;;;;;1.08;0.60;;;22.10;49.10;;;;;;5008971;28;20036;-64
2024/04/04 00:19:04;;;;;;;0.68;0.60;;;22.10;49.10;;;;;;5008949;28;20026;-65
2024/04/04 00:21:30;;;;;;;0.43;0.43;;;22.10;49.10;;;;;;5008769;28;20427;-64
2024/04/04 00:23:59;;;;;;;0.95;0.50;;;22.10;49.10;;;;;;5008784;28;20026;-65
2024/04/04 00:26:25;;;;;;;0.88;0.50;;;22.10;49.10;;;;;;5008894;28;20030;-64
2024/04/04 00:28:51;;;;;;;0.57;0.50;;;22.10;49.10;;;;;;5009285;28;20034;-64
2024/04/04 00:31:16;;;;;;;1.10;0.57;;;22.10;49.10;;;;;;5007565;28;20080;-64
2024/04/04 00:33:42;;;;;;;0.57;0.50;;;22.00;49.00;;;;;;5008660;28;20026;-65
2024/04/04 00:36:08;;;;;;;1.13;0.60;;;22.00;49.00;;;;;;5008757;28;20109;-65
2024/04/04 00:38:37;;;;;;;0.93;0.57;;;22.00;49.00;;;;;;5008888;28;20030;-64
2024/04/04 00:41:03;;;;;;;1.20;0.60;;;22.00;49.00;;;;;;5008366;28;20022;-65
2024/04/04 00:43:29;;;;;;;0.52;0.47;;;22.00;49.10;;;;;;5011945;28;20026;-64
2024/04/04 00:45:57;;;;;;;0.90;0.57;;;22.00;49.60;;;;;;5011656;28;20026;-65
2024/04/04 00:48:23;;;;;;;0.73;0.40;;;22.00;49.00;;;;;;5012482;28;20042;-64
2024/04/04 00:50:52;;;;;;;0.47;0.47;;;22.00;49.10;;;;;;5011555;28;20030;-64
2024/04/04 00:53:19;;;;;;;0.70;0.60;;;22.00;49.10;;;;;;5012549;28;20371;-64
2024/04/04 00:55:48;;;;;;;0.47;0.47;;;21.90;49.00;;;;;;5012293;28;20472;-65
2024/04/04 00:58:18;;;;;;;0.60;0.40;;;21.90;49.00;;;;;;5012159;28;20431;-65
2024/04/04 01:00:43;;;;;;;;;;;21.90;49.00;;;;;;5011437;28;20040;-65
2024/04/04 01:03:10;;;;;;;0.82;0.52;;;21.90;49.10;;;;;;5011997;28;19909;-65
2024/04/04 01:05:35;;;;;;;0.40;0.40;;;21.90;49.00;;;;;;5011929;28;20563;-65
2024/04/04 01:08:01;;;;;;;0.60;0.50;;;21.90;49.10;;;;;;5011657;28;20029;-65
2024/04/04 01:10:27;;;;;;;1.52;0.50;;;21.90;49.10;;;;;;5011996;28;20032;-65
2024/04/04 01:12:53;;;;;;;0.52;0.50;;;21.90;49.10;;;;;;5011812;28;20026;-65
2024/04/04 01:15:18;;;;;;;0.82;0.57;;;21.90;49.10;;;;;;5010120;28;20034;-65
2024/04/04 01:17:44;;;;;;;1.00;0.50;;;21.90;49.10;;;;;;5011912;28;20030;-65
2024/04/04 01:20:09;;;;;;;0.30;0.30;;;21.90;49.10;;;;;;5011462;28;20075;-65
2024/04/04 01:22:35;;;;;;;0.55;0.40;;;21.90;49.20;;;;;;5011568;28;20026;-65
2024/04/04 01:25:01;;;;;;;0.32;0.32;;;21.90;49.10;;;;;;5011532;28;20033;-65
2024/04/04 01:27:26;;;;;;;0.47;0.40;;;21.90;49.10;;;;;;5011495;28;20037;-65
2024/04/04 01:29:52;;;;;;;0.47;0.40;;;21.80;49.10;;;;;;5010498;28;20017;-65
2024/04/04 01:32:18;;;;;;;0.55;0.50;;;21.90;49.10;;;;;;5011416;28;20553;-65
2024/04/04 01:34:43;;;;;;;0.52;0.40;;;21.90;49.20;;;;;;5010319;28;20030;-65
2024/04/04 01:37:09;;;;;;;0.90;0.60;;;21.80;49.10;;;;;;5011064;28;20041;-65
2024/04/04 01:39:35;;;;;;;0.65;0.40;;;21.80;49.10;;;;;;5010851;28;20026;-65
2024/04/04 01:42:00;;;;;;;0.52;0.43;;;21.80;49.10;;;;;;5011234;28;20092;-65
2024/04/04 01:44:26;;;;;;;1.05;0.40;;;21.80;49.10;;;;;;5011131;28;20033;-65
2024/04/04 01:46:52;;;;;;;1.05;0.50;;;21.80;49.10;;;;;;5009889;28;20041;-65
2024/04/04 01:49:18;;;;;;;0.70;0.55;;;21.80;49.20;;;;;;5011324;28;20034;-65
2024/04/04 01:51:44;;;;;;;0.80;0.50;;;21.80;49.10;;;;;;5010814;28;20674;-65
2024/04/04 01:54:10;;;;;;;0.40;0.40;;;21.80;49.10;;;;;;5010798;28;20041;-65
2024/04/04 01:56:37;;;;;;;1.00;0.52;;;21.80;49.10;;;;;;5011180;28;20036;-64
2024/04/04 01:59:02;;;;;;;0.60;0.50;;;21.80;49.10;;;;;;5010982;28;20026;-65
2024/04/04 02:01:28;;;;;;;0.40;0.40;;;21.80;49.20;;;;;;5009507;28;20381;-64
2024/04/04 02:03:53;;;;;;;1.02;0.50;;;21.80;49.20;;;;;;5010859;28;20034;-65
2024/04/04 02:06:19;;;;;;;0.85;0.55;;;21.80;49.20;;;;;;5010496;28;20022;-65
2024/04/04 02:08:45;;;;;;;0.30;0.30;;;21.80;49.20;;;;;;5010601;28;20025;-64
2024/04/04 02:11:10;;;;;;;0.65;0.50;;;21.80;49.20;;;;;;5010066;28;20103;-64
2024/04/04 02:13:36;;;;;;;0.68;0.40;;;21.70;49.10;;;;;;5010605;28;20061;-65
2024/04/04 02:16:02;;;;;;;0.50;0.50;;;21.80;49.20;;;;;;5009546;28;20041;-65
2024/04/04 02:18:28;;;;;;;0.73;0.40;;;21.80;49.20;;;;;;5010814;28;20151;-65
2024/04/04 02:20:53;;;;;;;0.57;0.35;;;21.80;49.20;;;;;;5010333;28;20050;-64
2024/04/04 02:23:19;;;;;;;0.75;0.43;;;21.70;49.10;;;;;;5010225;28;20037;-65
2024/04/04 02:25:44;;;;;;;0.45;0.40;;;21.80;49.20;;;;;;5009636;28;20461;-64
2024/04/04 02:28:10;;;;;;;0.40;0.40;;;21.70;49.20;;;;;;5010201;28;20682;-65
2024/04/04 02:30:39;;;;;;;0.40;0.40;;;21.70;49.20;;;;;;5009225;28;20026;-65
2024/04/04 02:33:05;;;;;;;0.40;0.40;;;21.70;49.10;;;;;;5010347;28;20030;-65
2024/04/04 02:35:31;;;;;;;1.10;0.57;;;21.70;49.20;;;;;;5009874;28;20099;-64
2024/04/04 02:38:00;;;;;;;0.38;0.38;;;21.70;49.20;;;;;;5010104;28;20107;-65
2024/04/04 02:40:26;;;;;;;0.40;0.40;;;21.70;49.20;;;;;;5010219;28;20022;-65
2024/04/04 02:42:52;;;;;;;0.65;0.50;;;21.70;49.20;;;;;;5009659;28;20041;-65
2024/04/04 02:45:18;;;;;;;0.40;0.32;;;21.70;49.20;;;;;;5008961;28;20034;-65
2024/04/04 02:47:44;;;;;;;0.40;0.40;;;21.70;49.20;;;;;;5009819;28;20466;-65
2024/04/04 02:50:09;;;;;;;0.43;0.43;;;21.70;49.20;;;;;;5010044;28;20040;-64
2024/04/04 02:52:35;;;;;;;0.60;0.47;;;21.70;49.20;;;;;;5009793;28;20557;-65
2024/04/04 02:55:01;;;;;;;0.55;0.50;;;21.70;49.20;;;;;;5009607;28;20037;-64
2024/04/04 02:57:27;;;;;;;0.35;0.32;;;21.70;49.20;;;;;;5008877;28;20113;-64
2024/04/04 02:59:52;;;;;;;0.40;0.40;;;21.70;49.20;;;;;;5009820;28;20429;-65
2024/04/04 03:02:18;;;;;;;0.65;0.50;;;21.70;49.20;;;;;;5009097;28;20180;-65
2024/04/04 03:04:44;;;;;;;0.40;0.40;;;21.70;49.20;;;;;;5009401;28;20121;-64
2024/04/04 03:07:09;;;;;;;0.40;0.40;;;21.60;49.20;;;;;;5009630;28;20030;-65
2024/04/04 03:09:35;;;;;;;0.40;0.40;;;21.70;49.80;;;;;;5009184;28;20421;-64
2024/04/04 03:12:00;;;;;;;0.47;0.32;;;21.70;49.20;;;;;;5009631;28;20030;-64
2024/04/04 03:14:26;;;;;;;0.50;0.50;;;21.60;49.20;;;;;;5009261;28;20037;-64
2024/04/04 03:16:52;;;;;;;0.40;0.40;;;21.60;49.20;;;;;;5008442;28;20105;-65
2024/04/04 03:19:17;;;;;;;0.45;0.40;;;21.60;49.20;;;;;;5009582;28;20048;-64
2024/04/04 03:21:43;;;;;;;0.60;0.50;;;21.60;49.20;;;;;;5009436;28;20112;-65
2024/04/04 03:24:09;;;;;;;0.60;0.40;;;21.60;49.20;;;;;;5009825;28;20427;-65
2024/04/04 03:26:35;;;;;;;0.50;0.40;;;21.60;49.20;;;;;;5009572;28;20109;-65
2024/04/04 03:29:01;;;;;;;0.77;0.50;;;21.60;49.20;;;;;;5009440;28;20080;-65
2024/04/04 03:31:27;;;;;;;0.35;0.35;;;21.60;49.20;;;;;;5008148;28;20338;-65
2024/04/04 03:33:53;;;;;;;0.52;0.40;;;21.60;49.20;;;;;;5009138;28;20030;-65
2024/04/04 03:36:19;;;;;;;0.68;0.50;;;21.60;49.20;;;;;;5009021;28;20034;-65
2024/04/04 03:38:45;;;;;;;0.40;0.40;;;21.60;49.80;;;;;;5009179;28;20022;-65
2024/04/04 03:41:10;;;;;;;0.57;0.50;;;21.60;49.20;;;;;;5009260;28;20845;-65
2024/04/04 03:43:36;;;;;;;0.60;0.47;;;21.60;49.20;;;;;;5009193;28;20076;-65
2024/04/04 03:46:06;;;;;;;0.45;0.40;;;21.60;49.20;;;;;;5007997;28;20030;-65
2024/04/04 03:48:33;;;;;;;;;;;21.60;49.30;;;;;;5010033;28;20399;-65
2024/04/04 03:50:59;;;;;;;0.40;0.30;;;21.60;49.30;;;;;;5009043;28;19918;-65
2024/04/04 03:53:25;;;;;;;0.52;0.40;;;21.60;49.30;;;;;;5009157;28;20030;-65
2024/04/04 03:55:50;;;;;;;0.40;0.40;;;21.60;49.30;;;;;;5009146;28;20084;-65
2024/04/04 03:58:18;;;;;;;0.40;0.40;;;21.60;49.20;;;;;;5009515;28;20037;-65
2024/04/04 04:00:43;;;;;;;0.30;0.30;;;21.60;49.30;;;;;;5007485;28;20026;-65
2024/04/04 04:03:09;;;;;;;0.55;0.40;;;21.60;49.20;;;;;;5009110;28;20489;-65
2024/04/04 04:05:35;;;;;;;0.40;0.40;;;21.50;49.20;;;;;;5008638;28;20705;-65
2024/04/04 04:08:01;;;;;;;0.40;0.40;;;21.50;49.20;;;;;;5008593;28;20029;-65
2024/04/04 04:10:30;;;;;;;0.40;0.40;;;21.60;49.20;;;;;;5008467;28;20034;-65
2024/04/04 04:12:57;;;;;;;0.30;0.30;;;21.50;49.20;;;;;;5008937;28;20025;-65
2024/04/04 04:15:23;;;;;;;0.60;0.50;;;21.50;49.20;;;;;;4991072;28;20494;-65
2024/04/04 04:17:49;;;;;;;0.63;0.40;;;21.50;49.20;;;;;;5010361;28;20105;-64
2024/04/04 04:22:59;;;;;;;0.75;0.50;;;21.50;49.20;;;;;;5012544;28;20037;-62
2024/04/04 04:25:24;;;;;;;0.43;0.38;;;21.50;49.20;;;;;;5012864;28;20423;-63
2024/04/04 04:27:51;;;;;;;0.30;0.30;;;21.50;49.20;;;;;;5012438;28;20064;-65
2024/04/04 04:30:16;;;;;;;0.38;0.38;;;21.50;49.20;;;;;;5012628;28;20026;-65
2024/04/04 04:32:42;;;;;;;0.43;0.40;;;21.50;49.20;;;;;;5011943;28;20034;-65
2024/04/04 04:35:08;;;;;;;0.55;0.40;;;21.50;49.20;;;;;;5012497;28;20088;-65
2024/04/04 04:37:34;;;;;;;0.57;0.50;;;21.50;49.20;;;;;;5012330;28;20038;-65
2024/04/04 04:40:00;;;;;;;0.28;0.28;;;21.50;49.10;;;;;;5012340;28;20030;-65
2024/04/04 04:42:26;;;;;;;0.30;0.30;;;21.50;49.10;;;;;;5012523;28;20022;-65
2024/04/04 04:44:51;;;;;;;0.40;0.40;;;21.50;49.10;;;;;;5012287;28;20107;-65
2024/04/04 04:47:17;;;;;;;0.40;0.40;;;21.50;49.10;;;;;;5011288;28;20034;-66
2024/04/04 04:49:43;;;;;;;0.40;0.32;;;21.50;49.50;;;;;;5012390;28;20472;-66
2024/04/04 04:52:09;;;;;;;0.32;0.30;;;21.50;49.00;;;;;;5012102;28;20477;-65
2024/04/04 04:54:35;;;;;;;0.63;0.50;;;21.50;49.00;;;;;;5012218;28;20037;-66
2024/04/04 04:57:01;;;;;;;0.40;0.40;;;21.50;49.00;;;;;;5012021;28;20037;-65
2024/04/04 04:59:27;;;;;;;0.68;0.40;;;21.40;49.00;;;;;;5012055;28;20502;-66
2024/04/04 05:01:53;;;;;;;0.30;0.30;;;21.50;49.00;;;;;;5010691;28;20109;-66
2024/04/04 05:04:20;;;;;;;0.30;0.30;;;21.40;49.00;;;;;;5012065;28;20030;-66
2024/04/04 05:06:46;;;;;;;0.65;0.43;;;21.50;49.10;;;;;;5011758;28;20022;-66
2024/04/04 05:09:13;;;;;;;0.40;0.40;;;21.50;49.10;;;;;;5011930;28;20056;-66
2024/04/04 05:11:39;;;;;;;0.30;0.30;;;21.50;49.20;;;;;;5011904;28;20564;-66
2024/04/04 05:14:04;;;;;;;0.38;0.30;;;21.40;49.20;;;;;;5011674;28;20042;-66
2024/04/04 05:16:30;;;;;;;0.30;0.30;;;21.50;49.20;;;;;;5010681;28;20033;-66
2024/04/04 05:18:56;;;;;;;0.52;0.40;;;21.50;49.30;;;;;;5011860;28;20390;-66
2024/04/04 05:21:21;;;;;;;0.40;0.40;;;21.40;49.40;;;;;;5011203;28;20033;-65
2024/04/04 05:23:47;;;;;;;0.82;0.50;;;21.40;49.40;;;;;;5011423;28;20028;-65
2024/04/04 05:26:13;;;;;;;0.38;0.32;;;21.50;49.40;;;;;;5011725;28;20034;-63
2024/04/04 05:28:40;;;;;;;1.02;0.50;;;21.50;49.40;;;;;;5010988;28;20040;-63
2024/04/04 05:31:06;;;;;;;0.50;0.40;;;21.40;49.30;;;;;;5010888;28;20458;-62
2024/04/04 05:33:32;;;;;;;0.50;0.35;;;21.50;49.40;;;;;;5010690;28;20466;-63
2024/04/04 05:35:58;;;;;;;0.40;0.40;;;21.50;49.30;;;;;;5011453;28;20041;-65
2024/04/04 05:38:23;;;;;;;0.30;0.30;;;21.40;49.30;;;;;;5010838;28;20022;-64
2024/04/04 05:40:49;;;;;;;0.30;0.30;;;21.50;49.30;;;;;;5011331;28;20025;-65
2024/04/04 05:43:15;;;;;;;0.82;0.40;;;21.50;49.30;;;;;;5010832;28;20030;-66
2024/04/04 05:45:40;;;;;;;0.38;0.38;;;21.40;49.30;;;;;;5011188;28;20021;-65
2024/04/04 05:48:06;;;;;;;0.30;0.30;;;21.40;49.30;;;;;;5009790;28;20060;-65
2024/04/04 05:50:34;;;;;;;0.32;0.32;;;21.50;49.30;;;;;;5010516;28;20034;-65
2024/04/04 05:53:00;;;;;;;0.65;0.40;;;21.40;49.30;;;;;;5010710;28;20095;-65
2024/04/04 05:55:25;;;;;;;0.30;0.30;;;21.50;49.30;;;;;;5010850;28;20474;-65
2024/04/04 05:57:51;;;;;;;0.32;0.32;;;21.40;49.30;;;;;;5010924;28;20034;-65
2024/04/04 06:00:16;;;;;;;0.57;0.47;;;21.40;49.30;;;;;;5010899;28;20033;-65
2024/04/04 06:02:42;;;;;;;0.38;0.38;;;21.40;49.30;;;;;;5009704;28;20166;-65
2024/04/04 06:05:08;;;;;;;0.30;0.30;;;21.40;49.30;;;;;;5010650;28;20038;-65
2024/04/04 06:07:34;;;;;;;0.63;0.40;;;21.40;49.30;;;;;;5009875;28;20033;-64
2024/04/04 06:10:00;;;;;;;0.30;0.30;;;21.40;49.30;;;;;;5010378;28;20466;-65
2024/04/04 06:12:26;;;;;;;0.50;0.40;;;21.40;49.30;;;;;;5010647;28;20033;-65
2024/04/04 06:14:51;;;;;;;0.30;0.30;;;21.40;49.30;;;;;;5010445;28;20045;-64
2024/04/04 06:17:17;;;;;;;0.40;0.40;;;21.40;49.30;;;;;;5008879;28;20030;-64
2024/04/04 06:19:43;;;;;;;0.60;0.50;;;21.40;49.30;;;;;;5010599;28;20026;-64
2024/04/04 06:22:09;;;;;;;0.40;0.40;;;21.40;49.30;;;;;;5010337;28;20414;-65
2024/04/04 06:24:34;;;;;;;0.57;0.32;;;21.40;49.30;;;;;;5010528;28;20128;-65
2024/04/04 06:27:00;;;;;;;0.55;0.40;;;21.40;49.30;;;;;;5010729;28;20037;-64
2024/04/04 06:29:26;;;;;;;0.30;0.30;;;21.40;49.30;;;;;;5010375;28;20030;-65
2024/04/04 06:31:51;;;;;;;0.35;0.35;;;21.40;49.30;;;;;;5009384;28;20084;-64
2024/04/04 06:34:19;;;;;;;0.55;0.40;;;21.40;47.80;;;;;;5010276;28;20103;-65
2024/04/04 06:36:44;;;;;;;0.80;0.52;;;21.40;46.30;;;;;;5010258;28;20077;-63
2024/04/04 06:39:12;;;;;;;0.68;0.65;;;21.30;45.60;;;;;;5009465;28;20553;-62
2024/04/04 06:41:38;;;;;;;1.00;0.50;;;21.20;45.40;;;;;;5010053;28;20026;-63
2024/04/04 06:44:04;;;;;;;1.13;0.50;;;21.20;45.10;;;;;;5010141;28;20037;-63
2024/04/04 06:46:30;;;;;;;1.25;0.60;;;21.10;45.20;;;;;;5010345;28;20040;-64
2024/04/04 06:48:56;;;;;;;1.60;0.80;;;21.00;45.10;;;;;;5009602;28;20056;-64
2024/04/04 06:51:23;;;;;;;1.17;0.60;;;21.00;45.40;;;;;;5009996;28;20066;-64
2024/04/04 06:53:48;;;;;;;1.13;0.60;;;21.00;45.60;;;;;;5009663;28;20026;-64
2024/04/04 06:56:14;;;;;;;1.25;0.70;;;21.00;45.90;;;;;;5010014;28;20105;-64
2024/04/04 06:58:39;;;;;;;1.42;0.60;;;21.00;46.10;;;;;;5009903;28;20026;-64
2024/04/04 07:01:05;;;;;;;0.60;0.47;;;21.00;46.10;;;;;;5009857;28;20021;-64
2024/04/04 07:03:31;;;;;;;1.17;0.52;;;21.00;46.20;;;;;;5008742;28;20026;-64
2024/04/04 07:05:56;;;;;;;2.53;0.82;;;21.00;46.30;;;;;;5009958;28;20470;-64
2024/04/04 07:08:22;;;;;;;1.08;0.60;;;21.00;46.50;;;;;;5009151;28;20402;-64
2024/04/04 07:10:47;;;;;;;1.00;0.70;;;21.00;46.60;;;;;;5009701;28;20037;-64
2024/04/04 07:13:15;;;;;;;0.98;0.60;;;21.10;46.70;;;;;;5009496;28;20084;-64
2024/04/04 07:15:41;;;;;;;1.50;0.50;;;21.10;46.90;;;;;;5009854;28;20371;-64
2024/04/04 07:18:09;;;;;;;1.55;0.70;;;21.10;47.00;;;;;;4987796;28;20088;-64
2024/04/04 07:20:36;;;;;;;0.80;0.60;;;21.10;47.00;;;;;;5009694;28;20139;-64
2024/04/04 07:23:02;;;;;;;0.82;0.47;;;21.10;47.20;;;;;;5009115;28;20351;-64
2024/04/04 07:25:27;;;;;;;1.10;0.60;;;21.10;47.30;;;;;;5009533;28;20034;-64
2024/04/04 07:27:53;;;;;;;0.63;0.50;;;21.10;47.40;;;;;;5009333;28;20048;-64
2024/04/04 07:30:19;;;;;;;1.20;0.70;;;21.10;47.40;;;;;;5009494;28;20030;-64
2024/04/04 07:32:45;;;;;;;0.88;0.60;;;21.10;47.50;;;;;;5007950;28;20109;-64
2024/04/04 07:35:11;;;;;;;0.77;0.50;;;21.10;47.60;;;;;;5009263;28;20038;-64
2024/04/04 07:37:37;;;;;;;1.10;0.63;;;21.10;47.70;;;;;;5008646;28;20037;-64
2024/04/04 07:40:04;;;;;;;1.13;0.73;;;21.10;47.80;;;;;;5009209;28;20026;-64
2024/04/04 07:42:29;;;;;;;0.63;0.50;;;21.10;47.80;;;;;;5009310;28;20490;-64
2024/04/04 07:44:55;;;;;;;1.20;0.60;;;21.10;47.90;;;;;;5009075;28;20041;-64
2024/04/04 07:47:21;;;;;;;0.55;0.47;;;21.10;47.90;;;;;;5008611;28;20029;-65
2024/04/04 07:49:46;;;;;;;1.02;0.60;;;21.10;48.00;;;;;;5009100;28;20026;-65
2024/04/04 07:52:12;;;;;;;0.68;0.50;;;21.10;48.00;;;;;;5009099;28;20033;-65
2024/04/04 07:54:39;;;;;;;1.25;0.50;;;21.10;48.10;;;;;;5009172;28;20034;-65
2024/04/04 07:57:06;;;;;;;0.52;0.43;;;21.10;48.10;;;;;;5009502;28;20371;-65
2024/04/04 07:59:32;;;;;;;0.55;0.50;;;21.10;48.20;;;;;;5009210;28;20441;-65
2024/04/04 08:01:58;;;;;;;1.55;0.70;;;21.10;48.20;;;;;;5008849;28;20030;-65
2024/04/04 08:04:24;;;;;;;0.90;0.60;;;21.10;48.20;;;;;;5007598;28;20026;-65
2024/04/04 08:06:49;;;;;;;1.00;0.68;;;21.10;48.30;;;;;;5009075;28;20034;-65
2024/04/04 08:09:15;;;;;;;0.98;0.57;;;21.10;48.30;;;;;;4983996;28;20041;-65
2024/04/04 08:11:41;;;;;;;0.50;0.50;;;21.20;48.50;;;;;;5009030;28;20505;-66
2024/04/04 08:14:07;;;;;;;0.90;0.55;;;21.10;48.40;;;;;;5008045;28;20034;-65
2024/04/04 08:16:33;;;;;;;0.50;0.50;;;21.10;48.50;;;;;;5009035;28;20639;-65
2024/04/04 08:18:59;;;;;;;1.20;0.60;;;21.10;48.50;;;;;;5008034;28;20034;-65
2024/04/04 08:21:24;;;;;;;0.82;0.50;;;21.20;48.60;;;;;;5008977;28;20139;-65
2024/04/04 08:23:50;;;;;;;1.27;0.57;;;21.10;48.60;;;;;;5008902;28;20152;-65
2024/04/04 08:26:22;;;;;;;1.05;0.60;;;21.20;48.70;;;;;;5008939;28;20022;-65
2024/04/04 08:28:47;;;;;;;0.85;0.60;;;21.20;48.70;;;;;;5009291;28;20045;-65
2024/04/04 08:31:13;;;;;;;0.75;0.52;;;21.20;48.70;;;;;;5009107;28;20371;-65
2024/04/04 08:33:39;;;;;;;1.25;0.60;;;21.20;48.80;;;;;;5007865;28;20555;-65
2024/04/04 08:36:05;;;;;;;1.05;0.50;;;21.20;48.80;;;;;;5008948;28;20026;-65
2024/04/04 08:38:30;;;;;;;1.00;0.60;;;21.20;48.80;;;;;;5007736;28;20037;-65
2024/04/04 08:41:04;;;;;;;1.45;0.63;;;21.20;48.90;;;;;;4991122;28;20030;-65
2024/04/04 08:43:30;;;;;;;0.80;0.60;;;21.20;49.50;;;;;;5008809;28;20397;-65
2024/04/04 08:46:01;;;;;;;1.55;0.60;;;21.20;48.90;;;;;;5008628;28;20034;-65
2024/04/04 08:48:27;;;;;;;1.02;0.57;;;21.20;49.00;;;;;;5007391;28;20144;-65
2024/04/04 08:50:54;;;;;;;1.33;0.60;;;21.20;49.00;;;;;;5008798;28;20037;-65
2024/04/04 08:53:22;;;;;;;1.90;0.70;;;21.20;49.00;;;;;;5008441;28;20109;-65
2024/04/04 08:55:50;;;;;;;2.08;0.70;;;21.20;49.10;;;;;;5008788;28;20030;-65
2024/04/04 08:58:16;;;;;;;1.20;0.70;;;21.20;49.10;;;;;;5008589;28;20466;-63
2024/04/04 09:00:43;;;;;;;1.30;0.68;;;21.20;49.10;;;;;;5008632;28;20407;-63
2024/04/04 09:03:09;;;;;;;0.90;0.50;;;21.20;49.10;;;;;;5009136;28;20354;-62
2024/04/04 09:05:35;;;;;;;1.20;0.60;;;21.20;49.10;;;;;;5012238;28;20383;-63
2024/04/04 09:08:04;;;;;;;1.20;0.60;;;21.20;49.10;;;;;;5012047;28;20044;-62
2024/04/04 09:10:30;;;;;;;1.48;0.70;;;21.20;49.10;;;;;;4994787;28;20107;-62
2024/04/04 09:13:03;;;;;;;1.77;0.70;;;21.20;49.10;;;;;;5012099;28;20034;-63
2024/04/04 09:15:29;;;;;;;1.90;0.70;;;21.20;49.10;;;;;;5012041;28;20069;-62
2024/04/04 09:18:03;;;;;;;1.40;0.80;;;21.20;49.10;;;;;;5012011;28;20053;-62
2024/04/04 09:20:29;;;;;;;0.80;0.60;;;21.20;49.10;;;;;;5011271;28;20486;-63
2024/04/04 09:22:58;;;;;;;2.08;0.55;;;21.20;49.10;;;;;;5012105;28;20557;-62
2024/04/04 09:25:25;;;;;;;0.85;0.60;;;21.20;49.20;;;;;;5011927;28;20046;-62
2024/04/04 09:27:51;;;;;;;1.92;0.65;;;21.20;49.20;;;;;;5011765;28;20563;-62
2024/04/04 09:30:18;;;;;;;1.20;0.63;;;21.20;49.20;;;;;;5011810;28;20026;-62
2024/04/04 09:32:48;;;;;;;1.13;0.70;;;21.30;49.20;;;;;;5012129;28;20033;-63
2024/04/04 09:35:14;;;;;;;0.93;0.60;;;21.30;49.20;;;;;;5010235;28;20564;-62
2024/04/04 09:37:41;;;;;;;1.13;0.60;;;21.30;49.30;;;;;;5011542;28;20451;-62
2024/04/04 09:40:07;;;;;;;1.10;0.68;;;21.30;49.30;;;;;;5011342;28;20651;-63
2024/04/04 09:42:33;;;;;;;0.90;0.50;;;21.30;49.80;;;;;;5011742;28;20484;-62
2024/04/04 09:44:59;;;;;;;1.60;0.70;;;21.30;49.30;;;;;;5011767;28;20034;-62
2024/04/04 09:47:26;;;;;;;1.77;0.75;;;21.30;49.30;;;;;;5011503;28;20080;-63
2024/04/04 09:49:53;;;;;;;1.48;0.60;;;21.30;49.30;;;;;;5010502;28;20038;-63
2024/04/04 09:52:24;;;;;;;2.17;0.80;;;21.30;49.30;;;;;;5011408;28;20454;-63
2024/04/04 09:54:50;;;;;;;1.67;0.60;;;21.30;49.30;;;;;;5011030;28;20034;-63
2024/04/04 09:57:16;;;;;;;1.90;0.80;;;21.30;49.30;;;;;;5011216;28;20029;-63
2024/04/04 09:59:42;;;;;;;2.45;0.80;;;21.30;49.40;;;;;;5010988;28;20387;-63
2024/04/04 10:02:07;;;;;;;3.35;0.70;;;21.30;49.40;;;;;;5011269;28;20030;-63
2024/04/04 10:04:37;;;;;;;1.50;0.63;;;21.30;49.90;;;;;;5009940;28;20031;-62
2024/04/04 10:07:04;;;;;;;2.20;0.60;;;21.30;49.40;;;;;;5010946;28;20029;-64
2024/04/04 10:09:40;;;;;;;1.08;0.65;;;21.30;49.40;;;;;;5010596;28;20071;-64
2024/04/04 10:12:13;;;;;;;1.42;0.70;;;21.30;49.40;;;;;;5010889;28;20030;-65
2024/04/04 10:14:53;;;;;;;2.03;0.63;;;21.30;49.40;;;;;;5009269;28;20030;-64
2024/04/04 10:17:20;;;;;;;1.73;0.77;;;21.30;49.50;;;;;;5010734;28;20018;-65
2024/04/04 10:19:49;;;;;;;1.63;0.70;;;21.30;49.40;;;;;;5009531;28;20042;-65
2024/04/04 10:22:18;;;;;;;2.75;0.70;;;21.30;49.50;;;;;;5010964;28;20495;-64
2024/04/04 10:24:43;;;;;;;;;;;21.30;49.50;;;;;;5010541;28;20109;-64
2024/04/04 10:27:12;;;;;;;1.35;0.70;;;21.30;49.60;;;;;;5010461;28;20016;-64
2024/04/04 10:29:40;;;;;;;1.80;0.70;;;21.30;49.60;;;;;;5010017;28;20030;-64
2024/04/04 10:32:08;;;;;;;1.25;0.70;;;21.30;49.60;;;;;;5010540;28;20030;-65
2024/04/04 10:34:34;;;;;;;2.17;1.00;;;21.30;49.60;;;;;;5009571;28;20112;-64
2024/04/04 10:37:00;;;;;;;2.88;0.90;;;21.30;49.80;;;;;;5010266;28;20489;-64
2024/04/04 10:39:26;;;;;;;2.67;0.80;;;21.30;49.90;;;;;;5010128;28;20026;-65
2024/04/04 10:41:55;;;;;;;1.58;0.90;;;21.40;50.00;;;;;;5010641;28;20323;-65
2024/04/04 10:44:22;;;;;;;1.38;0.70;;;21.40;50.10;;;;;;5010155;28;20053;-65
2024/04/04 10:46:51;;;;;;;1.55;0.85;;;21.40;50.10;;;;;;5010300;28;20076;-64
2024/04/04 10:49:28;;;;;;;1.20;0.60;;;21.40;50.10;;;;;;5008593;28;20462;-64
2024/04/04 10:51:59;;;;;;;1.85;0.60;;;21.40;50.20;;;;;;5009777;28;20470;-65
2024/04/04 10:54:26;;;;;;;1.55;0.70;;;21.40;50.20;;;;;;5009636;28;20033;-65
2024/04/04 10:56:52;;;;;;;1.60;0.70;;;21.40;50.20;;;;;;5009914;28;20034;-64
2024/04/04 10:59:19;;;;;;;0.85;0.50;;;21.40;50.30;;;;;;5010220;28;20365;-65
2024/04/04 11:01:45;;;;;;;1.67;0.80;;;21.40;50.30;;;;;;5009991;28;20394;-64
2024/04/04 11:04:12;;;;;;;1.05;0.60;;;21.40;50.20;;;;;;5008770;28;20037;-65
2024/04/04 11:06:40;;;;;;;1.45;0.70;;;21.50;50.20;;;;;;5009883;28;20022;-64
2024/04/04 11:09:11;;;;;;;2.65;0.80;;;21.40;50.20;;;;;;5009801;28;20046;-65
2024/04/04 11:11:38;;;;;;;1.60;0.65;;;21.40;50.20;;;;;;5009841;28;20079;-65
2024/04/04 11:14:05;;;;;;;2.35;0.90;;;21.50;50.20;;;;;;5009512;28;20052;-64
2024/04/04 11:16:31;;;;;;;1.48;0.80;;;21.50;50.10;;;;;;5009947;28;20034;-65
2024/04/04 11:18:58;;;;;;;1.98;0.80;;;21.40;50.10;;;;;;5009622;28;20030;-65
2024/04/04 11:21:23;;;;;;;2.53;0.60;;;21.40;50.10;;;;;;5009173;28;20032;-65
2024/04/04 11:23:49;;;;;;;1.67;0.70;;;21.50;50.10;;;;;;5009582;28;20109;-65
2024/04/04 11:26:14;;;;;;;1.95;0.80;;;21.40;50.00;;;;;;5009042;28;20448;-65
2024/04/04 11:28:40;;;;;;;1.27;0.70;;;21.50;50.00;;;;;;5009458;28;20038;-64
2024/04/04 11:31:05;;;;;;;1.38;0.65;;;21.50;50.00;;;;;;5009522;28;20091;-65
2024/04/04 11:33:31;;;;;;;2.17;0.60;;;21.50;50.00;;;;;;5009442;28;20450;-64
2024/04/04 11:35:59;;;;;;;1.58;0.82;;;21.50;50.00;;;;;;5008062;28;20028;-64
2024/04/04 11:38:26;;;;;;;1.55;0.70;;;21.50;49.90;;;;;;5009608;28;20724;-64
2024/04/04 11:40:52;;;;;;;0.65;0.52;;;21.50;49.90;;;;;;5009120;28;20053;-64
2024/04/04 11:43:18;;;;;;;1.05;0.70;;;21.50;49.90;;;;;;5009289;28;20045;-64
2024/04/04 11:45:43;;;;;;;1.15;0.60;;;21.50;49.80;;;;;;5009406;28;20084;-64
2024/04/04 11:48:09;;;;;;;1.20;0.52;;;21.50;49.80;;;;;;5009219;28;20235;-64
2024/04/04 11:50:35;;;;;;;1.08;0.60;;;21.50;49.80;;;;;;5008163;28;20548;-64
2024/04/04 11:53:01;;;;;;;1.90;0.80;;;21.50;49.80;;;;;;5009392;28;21000;-64
2024/04/04 11:55:28;;;;;;;1.95;0.73;;;21.60;49.80;;;;;;5008884;28;20505;-64
2024/04/04 11:57:54;;;;;;;1.25;0.70;;;21.50;49.90;;;;;;5008801;28;20040;-64
2024/04/04 12:00:20;;;;;;;2.13;0.80;;;21.50;49.80;;;;;;5009166;28;20030;-64
2024/04/04 12:02:47;;;;;;;1.55;0.60;;;21.50;49.80;;;;;;5009368;28;20053;-64
2024/04/04 12:05:14;;;;;;;2.78;0.75;;;21.60;50.30;;;;;;5008225;28;20744;-64
2024/04/04 12:07:41;;;;;;;1.65;0.73;;;21.60;49.80;;;;;;5009175;28;20497;-64
2024/04/04 12:10:07;;;;;;;2.42;0.70;;;21.50;49.70;;;;;;5009083;28;20739;-64
2024/04/04 12:12:33;;;;;;;0.93;0.68;;;21.60;49.80;;;;;;5008889;28;20041;-64
2024/04/04 12:14:58;;;;;;;2.00;0.60;;;21.50;49.70;;;;;;5008743;28;20042;-64
2024/04/04 12:17:24;;;;;;;1.35;0.68;;;21.60;49.70;;;;;;5009039;28;20029;-64
2024/04/04 12:19:49;;;;;;;1.20;0.60;;;21.60;49.70;;;;;;5008101;28;20033;-64
2024/04/04 12:22:16;;;;;;;0.93;0.60;;;21.60;49.70;;;;;;5009177;28;20050;-64
2024/04/04 12:24:42;;;;;;;1.45;0.73;;;21.60;49.70;;;;;;5008850;28;20466;-64
2024/04/04 12:27:08;;;;;;;0.60;0.45;;;21.60;49.60;;;;;;5008694;28;20029;-65
2024/04/04 12:29:33;;;;;;;1.45;0.60;;;21.60;49.60;;;;;;5009037;28;20033;-64
2024/04/04 12:31:59;;;;;;;2.58;0.70;;;21.60;49.60;;;;;;5008724;28;20022;-65
2024/04/04 12:34:25;;;;;;;1.08;0.50;;;21.60;49.50;;;;;;5008664;28;20096;-65
2024/04/04 12:36:51;;;;;;;1.48;0.63;;;21.60;49.50;;;;;;5007636;28;20022;-64
2024/04/04 12:39:17;;;;;;;2.28;0.60;;;21.60;49.50;;;;;;5011808;28;20025;-65
2024/04/04 12:41:42;;;;;;;2.00;0.70;;;21.60;49.40;;;;;;5012299;28;20037;-65
2024/04/04 12:44:09;;;;;;;2.53;0.80;;;21.60;49.40;;;;;;5012679;28;20030;-65
2024/04/04 12:46:38;;;;;;;1.35;0.65;;;21.60;49.40;;;;;;5012688;28;20054;-65